^^
Station Historical Data
Daily Summary for May 7, 2017 Units:  English    Metric   Both
« Previous Day
Next Day »
Daily Weekly Monthly Yearly Custom
  High: Low: Average:
Temperature: 52.3 °F 43.0 °F 48.1 °F
Dew Point: 46.2 °F 38.4 °F 42.1 °F
Humidity: 93 % 63 % 80 %
Wind Speed: 11.4 mph 0.0 mph 2.3 mph
Wind Gust: 19.6 mph - -
Wind:- - West
Pressure: 29.84 in 29.51 in -
Precipitation: 0.08 in    
Historical Graphs
 
 
Tabular Data for May 7, 2017
Time Temperature Dew Point Pressure Wind Wind Speed Wind Gust Humidity Rainfall Rate (Hourly) solar Conditions
00:03 48.1 °F 46.2 °F 29.51 in Calm   2.3 mph 93 % 0.01 in 0.0 W/m2 -RA
00:08 48.1 °F 46.2 °F 29.51 in WSW 1.6 mph 6.9 mph 93 % 0.01 in 0.0 W/m2 -RA
00:13 48.1 °F 46.2 °F 29.51 in SW 2.5 mph 4.6 mph 93 % 0.01 in 0.0 W/m2 -RA
00:18 48.1 °F 46.2 °F 29.51 in Calm     93 % 0.01 in 0.0 W/m2 -RA
00:23 48.0 °F 46.1 °F 29.51 in Calm     93 % 0.01 in 0.0 W/m2 -RA
00:28 48.1 °F 46.2 °F 29.51 in SW 0.3 mph 2.3 mph 93 % 0.01 in 0.0 W/m2 -RA
00:33 48.0 °F 46.1 °F 29.51 in SW 2.0 mph 6.0 mph 93 % 0.01 in 0.0 W/m2 -RA
00:38 47.9 °F 46.0 °F 29.51 in West 0.7 mph 3.5 mph 93 % 0.01 in 0.0 W/m2 -RA
00:43 47.8 °F 45.6 °F 29.51 in SSW 1.0 mph 4.6 mph 92 % 0.01 in 0.0 W/m2 -RA
00:48 47.8 °F 45.6 °F 29.51 in WSW 0.6 mph 3.5 mph 92 % 0.00 in 0.0 W/m2 -RA
00:53 47.7 °F 45.5 °F 29.52 in Calm     92 % 0.00 in 0.0 W/m2 -RA
00:58 47.7 °F 45.5 °F 29.52 in Calm     92 % 0.00 in 0.0 W/m2 -RA
01:03 47.7 °F 45.5 °F 29.52 in WSW 0.1 mph 1.2 mph 92 % 0.00 in 0.0 W/m2 OVC
01:08 47.6 °F 45.4 °F 29.52 in SW 1.1 mph 5.8 mph 92 % 0.00 in 0.0 W/m2 OVC
01:13 47.6 °F 45.1 °F 29.52 in SW 1.1 mph 3.5 mph 91 % 0.00 in 0.0 W/m2 OVC
01:18 47.5 °F 45.0 °F 29.53 in WSW 1.9 mph 6.9 mph 91 % 0.00 in 0.0 W/m2 OVC
01:23 47.6 °F 45.1 °F 29.53 in SW 1.8 mph 6.9 mph 91 % 0.00 in 0.0 W/m2 OVC
01:28 47.6 °F 45.1 °F 29.53 in West 0.4 mph 2.3 mph 91 % 0.00 in 0.0 W/m2 OVC
01:33 47.6 °F 45.1 °F 29.53 in WSW 0.2 mph 1.0 mph 91 % 0.00 in 0.0 W/m2 OVC
01:38 47.7 °F 44.9 °F 29.53 in Calm   3.5 mph 90 % 0.00 in 0.0 W/m2 OVC
01:43 47.7 °F 44.9 °F 29.53 in SW 0.6 mph 3.5 mph 90 % 0.00 in 0.0 W/m2 OVC
01:48 47.7 °F 44.9 °F 29.53 in SSW 2.7 mph 4.6 mph 90 % 0.00 in 0.0 W/m2 OVC
01:53 47.6 °F 44.8 °F 29.53 in Calm   1.2 mph 90 % 0.00 in 0.0 W/m2 OVC
01:58 47.6 °F 44.8 °F 29.54 in WSW 2.8 mph 5.0 mph 90 % 0.00 in 0.0 W/m2 OVC
02:03 47.5 °F 44.7 °F 29.54 in SW 2.2 mph 5.0 mph 90 % 0.00 in 0.0 W/m2 OVC
02:08 47.6 °F 44.8 °F 29.53 in SW 1.0 mph 4.6 mph 90 % 0.00 in 0.0 W/m2 OVC
02:13 47.6 °F 44.8 °F 29.54 in Calm     90 % 0.00 in 0.0 W/m2 OVC
02:18 47.6 °F 44.8 °F 29.54 in SW 2.8 mph 4.6 mph 90 % 0.00 in 0.0 W/m2 OVC
02:23 47.5 °F 44.4 °F 29.54 in SW 2.4 mph 5.8 mph 89 % 0.00 in 0.0 W/m2 OVC
02:24 47.5 °F 44.4 °F 29.54 in WSW 5.0 mph 10.4 mph 89 % 0.00 in 0.0 W/m2 OVC
02:29 47.5 °F 44.4 °F 29.55 in SW 1.2 mph 7.0 mph 89 % 0.00 in 0.0 W/m2 OVC
02:34 47.4 °F 44.0 °F 29.55 in SSW 0.4 mph 2.3 mph 88 % 0.00 in 0.0 W/m2 OVC
02:39 47.4 °F 44.0 °F 29.55 in WSW 0.1 mph 3.5 mph 88 % 0.00 in 0.0 W/m2 OVC
02:44 47.4 °F 44.0 °F 29.55 in SW 0.8 mph 3.5 mph 88 % 0.00 in 0.0 W/m2 OVC
02:49 47.4 °F 43.7 °F 29.56 in SW 2.5 mph 5.8 mph 87 % 0.00 in 0.0 W/m2 OVC
02:54 47.3 °F 43.6 °F 29.56 in Calm   3.5 mph 87 % 0.00 in 0.0 W/m2 OVC
02:59 47.3 °F 43.6 °F 29.56 in Calm   3.5 mph 87 % 0.00 in 0.0 W/m2 OVC
03:05 47.4 °F 43.7 °F 29.56 in Calm   3.5 mph 87 % 0.00 in 0.0 W/m2 OVC
03:10 47.4 °F 43.7 °F 29.56 in SSW 3.6 mph 6.0 mph 87 % 0.00 in 0.0 W/m2 OVC
03:15 47.3 °F 43.6 °F 29.56 in West 4.1 mph 6.0 mph 87 % 0.00 in 0.0 W/m2 OVC
03:20 47.4 °F 43.7 °F 29.56 in SW 0.1 mph 1.0 mph 87 % 0.00 in 0.0 W/m2 OVC
03:25 47.3 °F 43.3 °F 29.56 in SW 1.0 mph 7.0 mph 86 % 0.00 in 0.0 W/m2 OVC
03:30 47.3 °F 43.3 °F 29.56 in SW 1.5 mph 4.6 mph 86 % 0.00 in 0.0 W/m2 OVC
03:35 47.4 °F 43.4 °F 29.57 in Calm     86 % 0.00 in 0.0 W/m2 OVC
03:40 47.3 °F 43.3 °F 29.57 in Calm     86 % 0.00 in 0.0 W/m2 OVC
03:45 47.2 °F 42.9 °F 29.57 in SW 1.2 mph 4.6 mph 85 % 0.00 in 0.0 W/m2 OVC
03:50 47.3 °F 43.0 °F 29.57 in SW 1.1 mph 3.5 mph 85 % 0.00 in 0.0 W/m2 OVC
03:55 47.2 °F 42.9 °F 29.57 in SW 3.4 mph 6.9 mph 85 % 0.00 in 0.0 W/m2 OVC
04:00 47.2 °F 42.9 °F 29.57 in SW 4.2 mph 10.4 mph 85 % 0.00 in 0.0 W/m2 OVC
04:05 47.2 °F 42.6 °F 29.57 in WSW 2.0 mph 5.8 mph 84 % 0.00 in 0.0 W/m2 OVC
04:10 47.2 °F 42.6 °F 29.57 in WSW 3.4 mph 9.0 mph 84 % 0.00 in 0.0 W/m2 OVC
04:15 47.2 °F 42.3 °F 29.57 in WSW 3.3 mph 6.9 mph 83 % 0.00 in 0.0 W/m2 OVC
04:20 47.2 °F 42.3 °F 29.58 in West 1.4 mph 5.8 mph 83 % 0.00 in 0.0 W/m2 OVC
04:25 47.2 °F 42.3 °F 29.57 in SW 1.8 mph 6.9 mph 83 % 0.00 in 0.0 W/m2 OVC
04:30 47.1 °F 42.2 °F 29.58 in SW 0.8 mph 4.0 mph 83 % 0.00 in 0.0 W/m2 OVC
04:35 47.1 °F 42.2 °F 29.58 in SW 0.8 mph 3.5 mph 83 % 0.00 in 0.0 W/m2 OVC
04:40 47.1 °F 42.2 °F 29.58 in SW 1.0 mph 3.5 mph 83 % 0.00 in 0.0 W/m2 OVC
04:45 47.1 °F 42.2 °F 29.58 in WSW 0.4 mph 3.5 mph 83 % 0.00 in 0.0 W/m2 OVC
04:50 47.1 °F 42.2 °F 29.58 in WSW 0.1 mph   83 % 0.00 in 0.0 W/m2 OVC
04:55 47.0 °F 42.1 °F 29.58 in WSW 4.5 mph 11.5 mph 83 % 0.00 in 0.0 W/m2 OVC
05:00 47.0 °F 42.1 °F 29.58 in WSW 3.7 mph 8.1 mph 83 % 0.00 in 0.0 W/m2 OVC
05:01 47.0 °F 42.1 °F 29.58 in SW 1.7 mph 10.4 mph 83 % 0.00 in 0.0 W/m2 OVC
05:06 46.9 °F 42.0 °F 29.58 in SW 0.3 mph 1.0 mph 83 % 0.00 in 0.0 W/m2 OVC
05:11 46.9 °F 41.7 °F 29.58 in SW 0.4 mph 3.5 mph 82 % 0.00 in 0.0 W/m2 OVC
05:16 46.9 °F 41.7 °F 29.58 in WSW 0.3 mph 3.5 mph 82 % 0.00 in 0.0 W/m2 OVC
05:21 46.9 °F 41.7 °F 29.59 in SW 0.4 mph 3.5 mph 82 % 0.00 in 0.0 W/m2 OVC
05:26 46.9 °F 41.7 °F 29.59 in SSW 0.9 mph 3.5 mph 82 % 0.00 in 0.0 W/m2 OVC
05:31 46.9 °F 41.7 °F 29.59 in SW 1.5 mph 10.4 mph 82 % 0.00 in 0.0 W/m2 OVC
05:36 46.8 °F 41.6 °F 29.59 in WSW 0.9 mph 6.9 mph 82 % 0.00 in 0.0 W/m2 OVC
05:41 46.8 °F 41.6 °F 29.59 in WSW 1.4 mph 3.0 mph 82 % 0.00 in 0.0 W/m2 OVC
05:46 46.7 °F 41.5 °F 29.59 in WSW 2.0 mph 6.0 mph 82 % 0.00 in 0.0 W/m2 OVC
05:51 46.7 °F 41.5 °F 29.59 in WSW 1.3 mph 3.5 mph 82 % 0.00 in 0.0 W/m2 OVC
05:56 46.6 °F 41.4 °F 29.59 in SW 2.3 mph 8.1 mph 82 % 0.00 in 0.0 W/m2 OVC
06:01 46.6 °F 41.4 °F 29.60 in SW 1.0 mph 4.6 mph 82 % 0.00 in 7.0 W/m2 OVC
06:06 46.6 °F 41.7 °F 29.60 in WSW 0.7 mph 3.5 mph 83 % 0.00 in 9.0 W/m2 OVC
06:11 46.5 °F 41.6 °F 29.60 in West 1.0 mph 1.2 mph 83 % 0.00 in 14.0 W/m2 OVC
06:16 46.5 °F 41.6 °F 29.60 in Calm     83 % 0.00 in 19.0 W/m2 OVC
06:21 46.5 °F 41.6 °F 29.61 in Calm   9.2 mph 83 % 0.00 in 26.0 W/m2 OVC
06:26 46.5 °F 41.6 °F 29.61 in West 2.4 mph 4.6 mph 83 % 0.00 in 33.0 W/m2 OVC
06:31 46.6 °F 41.7 °F 29.61 in West 0.5 mph 6.9 mph 83 % 0.00 in 42.0 W/m2 OVC
06:37 46.7 °F 41.8 °F 29.61 in WSW 0.3 mph 3.5 mph 83 % 0.00 in 35.0 W/m2 OVC
06:42 46.9 °F 41.7 °F 29.61 in WSW 0.8 mph 3.5 mph 82 % 0.00 in 49.0 W/m2 OVC
06:47 47.0 °F 42.1 °F 29.61 in West 3.3 mph 11.5 mph 83 % 0.00 in 63.0 W/m2 OVC
06:52 47.0 °F 42.1 °F 29.62 in SW 1.5 mph 5.0 mph 83 % 0.00 in 51.0 W/m2 OVC
06:57 46.9 °F 41.7 °F 29.62 in WSW 0.6 mph 9.2 mph 82 % 0.00 in 47.0 W/m2 OVC
07:02 47.0 °F 42.1 °F 29.62 in West 0.5 mph 4.0 mph 83 % 0.00 in 40.0 W/m2 SCT
07:07 46.9 °F 41.7 °F 29.62 in Calm     82 % 0.00 in 40.0 W/m2 SCT
07:12 46.9 °F 41.7 °F 29.63 in Calm   1.2 mph 82 % 0.00 in 32.0 W/m2 SCT
07:17 46.9 °F 41.7 °F 29.63 in West 1.9 mph 5.8 mph 82 % 0.00 in 33.0 W/m2 SCT
07:22 46.9 °F 41.7 °F 29.63 in SW 2.0 mph 8.1 mph 82 % 0.00 in 39.0 W/m2 SCT
07:27 46.9 °F 41.7 °F 29.63 in WSW 0.3 mph 3.5 mph 82 % 0.00 in 54.0 W/m2 SCT
07:32 46.9 °F 41.7 °F 29.64 in Calm   2.3 mph 82 % 0.00 in 79.0 W/m2 SCT
07:37 47.0 °F 41.8 °F 29.64 in West 1.7 mph 8.1 mph 82 % 0.00 in 90.0 W/m2 SCT
07:42 47.1 °F 41.9 °F 29.64 in WSW 3.4 mph 8.1 mph 82 % 0.00 in 91.0 W/m2 SCT
07:47 47.1 °F 41.9 °F 29.64 in SW 0.7 mph 4.0 mph 82 % 0.00 in 113.0 W/m2 SCT
07:52 47.2 °F 41.7 °F 29.64 in WSW 3.0 mph 9.2 mph 81 % 0.00 in 107.0 W/m2 SCT
07:57 47.2 °F 41.7 °F 29.64 in SW 0.9 mph 6.9 mph 81 % 0.00 in 83.0 W/m2 SCT
08:02 47.2 °F 41.7 °F 29.64 in WNW 0.6 mph 3.5 mph 81 % 0.00 in 67.0 W/m2 OVC
08:07 47.2 °F 42.0 °F 29.64 in WSW 1.3 mph 4.6 mph 82 % 0.00 in 77.0 W/m2 OVC
08:12 47.1 °F 41.9 °F 29.65 in SW 3.5 mph 8.1 mph 82 % 0.00 in 98.0 W/m2 OVC
08:17 47.0 °F 41.8 °F 29.65 in West 2.0 mph 7.0 mph 82 % 0.00 in 102.0 W/m2 OVC
08:22 46.9 °F 41.7 °F 29.65 in West 1.9 mph 6.9 mph 82 % 0.00 in 135.0 W/m2 OVC
08:27 47.0 °F 42.1 °F 29.65 in WSW 1.7 mph 4.6 mph 83 % 0.00 in 123.0 W/m2 OVC
08:32 47.0 °F 42.1 °F 29.65 in SW 4.0 mph 9.2 mph 83 % 0.00 in 121.0 W/m2 OVC
08:37 47.1 °F 41.9 °F 29.66 in West 5.5 mph 12.0 mph 82 % 0.00 in 142.0 W/m2 OVC
08:42 47.3 °F 42.1 °F 29.66 in WSW 1.8 mph 4.6 mph 82 % 0.00 in 111.0 W/m2 OVC
08:47 47.2 °F 41.7 °F 29.66 in WSW 5.4 mph 11.5 mph 81 % 0.00 in 58.0 W/m2 OVC
08:52 47.1 °F 41.9 °F 29.66 in SW 4.0 mph 9.2 mph 82 % 0.00 in 93.0 W/m2 OVC
08:57 46.8 °F 41.6 °F 29.66 in WSW 1.3 mph 9.2 mph 82 % 0.00 in 76.0 W/m2 OVC
09:02 46.8 °F 41.9 °F 29.67 in WSW 6.1 mph 13.8 mph 83 % 0.00 in 84.0 W/m2 OVC
09:07 46.4 °F 41.5 °F 29.67 in West 2.0 mph 8.1 mph 83 % 0.01 in 102.0 W/m2 RA
09:12 46.2 °F 41.6 °F 29.67 in WNW 6.4 mph 13.8 mph 84 % 0.01 in 77.0 W/m2 RA
09:17 45.9 °F 41.6 °F 29.67 in West 0.5 mph 2.3 mph 85 % 0.02 in 158.0 W/m2 RA
09:22 46.2 °F 42.2 °F 29.67 in Calm     86 % 0.02 in 234.0 W/m2 RA
09:27 46.5 °F 42.8 °F 29.67 in WSW 0.6 mph 3.5 mph 87 % 0.02 in 265.0 W/m2 OVC
09:32 46.9 °F 42.9 °F 29.67 in WSW 1.2 mph 4.0 mph 86 % 0.02 in 299.0 W/m2 OVC
09:37 47.1 °F 42.8 °F 29.67 in West 2.0 mph 7.0 mph 85 % 0.02 in 330.0 W/m2 OVC
09:42 47.7 °F 43.1 °F 29.67 in West 2.6 mph 9.2 mph 84 % 0.02 in 341.0 W/m2 OVC
09:47 48.3 °F 43.1 °F 29.67 in West 3.0 mph 8.1 mph 82 % 0.02 in 369.0 W/m2 OVC
09:52 48.7 °F 43.1 °F 29.68 in West 0.2 mph 2.3 mph 81 % 0.02 in 359.0 W/m2 OVC
09:57 48.9 °F 42.3 °F 29.68 in West 1.0 mph 3.5 mph 78 % 0.02 in 360.0 W/m2 OVC
10:02 49.4 °F 42.5 °F 29.68 in NW 2.8 mph 8.0 mph 77 % 0.02 in 308.0 W/m2 -RA
10:07 49.3 °F 41.4 °F 29.68 in West 5.7 mph 12.7 mph 74 % 0.01 in 185.0 W/m2 -RA
10:12 49.2 °F 41.6 °F 29.68 in WSW 1.3 mph 4.6 mph 75 % 0.01 in 134.0 W/m2 -RA
10:17 48.2 °F 41.3 °F 29.68 in WSW 6.4 mph 16.1 mph 77 % 0.00 in 204.0 W/m2 -RA
10:22 47.6 °F 41.4 °F 29.69 in WNW 3.8 mph 11.5 mph 79 % 0.00 in 163.0 W/m2 -RA
10:27 47.3 °F 42.1 °F 29.69 in WSW 0.1 mph 2.0 mph 82 % 0.00 in 350.0 W/m2 -RA
10:32 47.5 °F 42.3 °F 29.69 in WNW 2.7 mph 8.1 mph 82 % 0.00 in 424.0 W/m2 -RA
10:37 48.4 °F 43.2 °F 29.69 in West 1.3 mph 8.0 mph 82 % 0.00 in 487.0 W/m2 -RA
10:42 48.5 °F 42.9 °F 29.69 in West 2.3 mph 4.0 mph 81 % 0.00 in 445.0 W/m2 -RA
10:47 48.6 °F 42.7 °F 29.69 in West 3.9 mph 8.1 mph 80 % 0.00 in 492.0 W/m2 -RA
10:52 49.0 °F 42.8 °F 29.69 in West 4.0 mph 11.5 mph 79 % 0.00 in 671.0 W/m2 -RA
10:57 49.1 °F 41.9 °F 29.69 in WNW 7.3 mph 13.8 mph 76 % 0.00 in 313.0 W/m2 -RA
11:02 48.5 °F 41.6 °F 29.69 in West 2.7 mph 5.8 mph 77 % 0.00 in 434.0 W/m2 OVC
11:07 49.3 °F 43.1 °F 29.69 in West 2.5 mph 2.5 mph 79 % 0.00 in 606.0 W/m2 OVC
11:12 49.3 °F 42.4 °F 29.69 in SW 5.6 mph 7.0 mph 77 % 0.00 in 568.0 W/m2 OVC
11:17 50.2 °F 42.9 °F 29.69 in West 8.0 mph 11.0 mph 76 % 0.00 in 837.0 W/m2 OVC
11:23 51.2 °F 42.8 °F 29.69 in WNW 6.5 mph 9.0 mph 73 % 0.00 in 635.0 W/m2 OVC
11:28 51.0 °F 42.3 °F 29.68 in SW 3.7 mph 10.4 mph 72 % 0.00 in 912.0 W/m2 OVC
11:33 51.3 °F 42.9 °F 29.68 in SSW 7.2 mph 12.7 mph 73 % 0.00 in 199.0 W/m2 OVC
11:38 50.2 °F 41.2 °F 29.69 in WSW 6.6 mph 16.1 mph 71 % 0.00 in 338.0 W/m2 OVC
11:43 49.7 °F 41.7 °F 29.69 in West 7.4 mph 15.0 mph 74 % 0.00 in 388.0 W/m2 OVC
11:48 49.5 °F 41.6 °F 29.69 in WSW 3.9 mph 10.4 mph 74 % 0.00 in 336.0 W/m2 OVC
11:53 49.7 °F 41.7 °F 29.69 in West 3.2 mph 10.0 mph 74 % 0.00 in 431.0 W/m2 OVC
11:58 50.1 °F 41.4 °F 29.69 in WNW 4.3 mph 11.5 mph 72 % 0.00 in 497.0 W/m2 OVC
12:03 50.7 °F 41.6 °F 29.69 in SW 1.5 mph 6.0 mph 71 % 0.00 in 526.0 W/m2 OVC
12:08 50.7 °F 41.3 °F 29.69 in West 4.6 mph 9.2 mph 70 % 0.00 in 322.0 W/m2 OVC
12:13 50.9 °F 41.1 °F 29.69 in SW 1.6 mph 5.0 mph 69 % 0.00 in 345.0 W/m2 OVC
12:18 50.8 °F 40.6 °F 29.69 in WSW 5.4 mph 16.1 mph 68 % 0.00 in 443.0 W/m2 OVC
12:23 51.4 °F 40.4 °F 29.69 in WNW 5.3 mph 13.8 mph 66 % 0.00 in 359.0 W/m2 OVC
12:28 51.4 °F 40.4 °F 29.69 in West 4.4 mph 11.5 mph 66 % 0.00 in 146.0 W/m2 OVC
12:33 50.6 °F 40.8 °F 29.69 in West 5.8 mph 12.7 mph 69 % 0.01 in 158.0 W/m2 RA
12:38 49.6 °F 40.9 °F 29.69 in WNW 0.1 mph 3.5 mph 72 % 0.01 in 311.0 W/m2 RA
12:43 49.7 °F 41.0 °F 29.69 in WNW 2.1 mph 15.0 mph 72 % 0.01 in 292.0 W/m2 OVC
12:48 50.2 °F 40.4 °F 29.69 in WNW 11.2 mph 18.0 mph 69 % 0.01 in 473.0 W/m2 OVC
12:53 50.5 °F 39.6 °F 29.69 in WNW 6.9 mph 15.0 mph 66 % 0.01 in 431.0 W/m2 OVC
12:58 50.8 °F 39.8 °F 29.69 in WNW 5.0 mph 16.1 mph 66 % 0.01 in 411.0 W/m2 OVC
13:03 50.7 °F 39.7 °F 29.70 in NNW 2.8 mph 11.5 mph 66 % 0.01 in 311.0 W/m2 OVC
13:07 50.5 °F 39.6 °F 29.70 in NW 1.9 mph 16.0 mph 66 % 0.01 in 301.0 W/m2 OVC
13:12 50.2 °F 38.9 °F 29.70 in NW 7.7 mph 13.8 mph 65 % 0.01 in 309.0 W/m2 OVC
13:13 50.1 °F 38.8 °F 29.70 in WNW 11.3 mph 18.4 mph 65 % 0.01 in 302.0 W/m2 OVC
13:18 49.7 °F 38.4 °F 29.71 in WNW 6.3 mph 15.0 mph 65 % 0.01 in 258.0 W/m2 OVC
13:23 49.8 °F 39.3 °F 29.71 in NW 7.4 mph 15.0 mph 67 % 0.01 in 239.0 W/m2 OVC
13:28 49.8 °F 39.7 °F 29.71 in SW 7.0 mph 18.4 mph 68 % 0.01 in 179.0 W/m2 OVC
13:33 48.4 °F 39.4 °F 29.71 in WSW 1.6 mph 8.1 mph 71 % 0.00 in 221.0 W/m2 OVC
13:38 48.1 °F 40.2 °F 29.71 in SW 1.6 mph 12.7 mph 74 % 0.00 in 227.0 W/m2 OVC
13:43 47.9 °F 40.7 °F 29.72 in SW 3.4 mph 8.0 mph 76 % 0.00 in 218.0 W/m2 OVC
13:48 47.6 °F 40.7 °F 29.72 in Calm   10.4 mph 77 % 0.00 in 223.0 W/m2 OVC
13:53 47.5 °F 41.0 °F 29.72 in WSW 7.6 mph 13.0 mph 78 % 0.00 in 267.0 W/m2 OVC
13:58 47.2 °F 40.7 °F 29.72 in West 3.8 mph 11.5 mph 78 % 0.00 in 279.0 W/m2 OVC
14:03 47.6 °F 41.4 °F 29.73 in WNW 8.1 mph 13.0 mph 79 % 0.00 in 352.0 W/m2 -RA
14:08 47.9 °F 41.4 °F 29.73 in WNW 4.7 mph 9.2 mph 78 % 0.00 in 399.0 W/m2 -RA
14:13 48.4 °F 42.2 °F 29.73 in West 2.4 mph 5.8 mph 79 % 0.00 in 388.0 W/m2 -RA
14:18 48.5 °F 42.0 °F 29.73 in West 1.3 mph 9.2 mph 78 % 0.00 in 338.0 W/m2 -RA
14:21 48.5 °F 42.0 °F 29.73 in West 0.6 mph 9.2 mph 78 % 0.00 in 241.0 W/m2 -RA
14:26 48.6 °F 42.4 °F 29.73 in WSW 3.8 mph 6.9 mph 79 % 0.00 in 167.0 W/m2 -RA
14:31 48.5 °F 42.3 °F 29.73 in WNW 7.6 mph 12.7 mph 79 % 0.00 in 209.0 W/m2 -RA
14:36 48.1 °F 41.9 °F 29.73 in NW 8.6 mph 17.3 mph 79 % 0.00 in 294.0 W/m2 -RA
14:41 47.9 °F 42.0 °F 29.73 in SW 7.2 mph 11.5 mph 80 % 0.00 in 316.0 W/m2 -RA
14:46 48.2 °F 42.6 °F 29.73 in NW 5.0 mph 12.7 mph 81 % 0.01 in 448.0 W/m2 -RA
14:51 48.4 °F 42.5 °F 29.73 in NW 4.3 mph 9.2 mph 80 % 0.01 in 501.0 W/m2 -RA
14:56 49.1 °F 43.2 °F 29.73 in WNW 9.8 mph 15.0 mph 80 % 0.01 in 540.0 W/m2 -RA
15:01 49.5 °F 43.3 °F 29.73 in WNW 6.1 mph 12.7 mph 79 % 0.01 in 413.0 W/m2 -RA
15:06 50.0 °F 43.7 °F 29.73 in West 1.8 mph 12.0 mph 79 % 0.01 in 360.0 W/m2 -RA
15:11 50.1 °F 43.5 °F 29.73 in WNW 4.0 mph 9.2 mph 78 % 0.01 in 197.0 W/m2 -RA
15:16 49.5 °F 42.9 °F 29.73 in West 2.6 mph 6.9 mph 78 % 0.01 in 98.0 W/m2 -RA
15:21 48.9 °F 42.3 °F 29.73 in West 6.8 mph 12.7 mph 78 % 0.01 in 83.0 W/m2 -RA
15:22 48.8 °F 42.6 °F 29.73 in WNW 2.7 mph 10.4 mph 79 % 0.01 in 84.0 W/m2 -RA
15:27 48.3 °F 42.4 °F 29.73 in Calm     80 % 0.02 in 221.0 W/m2 -RA
15:32 48.6 °F 43.4 °F 29.73 in WNW 0.8 mph 3.5 mph 82 % 0.02 in 287.0 W/m2 -RA
15:34 48.8 °F 43.5 °F 29.73 in WNW 1.2 mph 6.9 mph 82 % 0.02 in 313.0 W/m2 -RA
15:39 48.8 °F 42.9 °F 29.73 in WNW 9.6 mph 13.8 mph 80 % 0.02 in 338.0 W/m2 -RA
15:44 49.1 °F 42.9 °F 29.73 in West 3.0 mph 11.5 mph 79 % 0.01 in 366.0 W/m2 -RA
15:49 49.7 °F 43.5 °F 29.73 in West 2.1 mph 6.9 mph 79 % 0.01 in 367.0 W/m2 -RA
15:54 50.2 °F 43.6 °F 29.73 in NNW 2.3 mph 4.0 mph 78 % 0.01 in 163.0 W/m2 -RA
15:59 49.4 °F 43.2 °F 29.73 in WNW 0.9 mph 3.5 mph 79 % 0.01 in 396.0 W/m2 -RA
16:04 49.7 °F 43.8 °F 29.73 in WSW 0.8 mph 5.0 mph 80 % 0.01 in 403.0 W/m2 OVC
16:09 50.1 °F 43.8 °F 29.73 in West 6.2 mph 17.3 mph 79 % 0.01 in 322.0 W/m2 OVC
16:14 50.0 °F 42.7 °F 29.73 in WNW 5.1 mph 11.5 mph 76 % 0.01 in 292.0 W/m2 OVC
16:19 50.2 °F 42.6 °F 29.73 in WNW 3.7 mph 12.0 mph 75 % 0.01 in 309.0 W/m2 OVC
16:24 50.4 °F 42.1 °F 29.73 in WNW 5.5 mph 13.8 mph 73 % 0.01 in 306.0 W/m2 OVC
16:29 50.7 °F 42.4 °F 29.73 in WNW 3.3 mph 10.0 mph 73 % 0.00 in 258.0 W/m2 OVC
16:34 50.9 °F 41.8 °F 29.73 in WNW 8.3 mph 13.8 mph 71 % 0.00 in 232.0 W/m2 OVC
16:39 50.9 °F 41.5 °F 29.73 in WNW 2.4 mph 8.1 mph 70 % 0.00 in 243.0 W/m2 OVC
16:44 51.1 °F 41.7 °F 29.73 in WNW 3.7 mph 12.7 mph 70 % 0.00 in 213.0 W/m2 OVC
16:49 51.1 °F 40.9 °F 29.73 in NNW 8.0 mph 11.5 mph 68 % 0.00 in 232.0 W/m2 OVC
16:54 51.2 °F 40.6 °F 29.73 in NNW 5.1 mph 18.4 mph 67 % 0.00 in 202.0 W/m2 OVC
16:59 51.4 °F 40.8 °F 29.73 in WNW 4.1 mph 10.4 mph 67 % 0.00 in 181.0 W/m2 OVC
17:04 51.5 °F 40.9 °F 29.73 in WNW 4.6 mph 12.7 mph 67 % 0.00 in 163.0 W/m2 OVC
17:09 51.4 °F 40.4 °F 29.73 in West 5.8 mph 10.4 mph 66 % 0.00 in 160.0 W/m2 OVC
17:14 51.3 °F 39.9 °F 29.73 in West 2.2 mph 11.5 mph 65 % 0.00 in 174.0 W/m2 OVC
17:19 51.3 °F 39.9 °F 29.73 in NW 5.4 mph 11.5 mph 65 % 0.00 in 223.0 W/m2 OVC
17:24 51.6 °F 40.2 °F 29.74 in NW 0.3 mph 9.2 mph 65 % 0.00 in 255.0 W/m2 OVC
17:29 52.0 °F 40.6 °F 29.74 in WNW 7.1 mph 11.5 mph 65 % 0.00 in 285.0 W/m2 OVC
17:34 52.3 °F 40.5 °F 29.74 in West 2.6 mph 11.5 mph 64 % 0.00 in 237.0 W/m2 OVC
17:39 52.2 °F 40.0 °F 29.74 in West 9.4 mph 15.0 mph 63 % 0.00 in 206.0 W/m2 OVC
17:44 52.0 °F 40.2 °F 29.74 in WNW 2.7 mph 9.2 mph 64 % 0.00 in 185.0 W/m2 OVC
17:49 52.0 °F 40.2 °F 29.74 in NW 9.5 mph 14.0 mph 64 % 0.00 in 120.0 W/m2 OVC
17:54 51.7 °F 39.9 °F 29.75 in NW 6.8 mph 15.0 mph 64 % 0.00 in 125.0 W/m2 OVC
17:59 51.6 °F 40.2 °F 29.75 in NW 5.5 mph 10.4 mph 65 % 0.00 in 100.0 W/m2 OVC
18:04 51.5 °F 40.5 °F 29.75 in West 4.9 mph 11.0 mph 66 % 0.00 in 118.0 W/m2 OVC
18:09 51.5 °F 40.1 °F 29.75 in NW 4.5 mph 13.8 mph 65 % 0.00 in 105.0 W/m2 OVC
18:15 51.5 °F 40.1 °F 29.75 in NW 11.4 mph 19.6 mph 65 % 0.00 in 158.0 W/m2 OVC
18:20 51.3 °F 40.3 °F 29.75 in NNW 3.8 mph 11.5 mph 66 % 0.00 in 160.0 W/m2 OVC
18:25 50.8 °F 40.2 °F 29.76 in NNW 6.0 mph 12.7 mph 67 % 0.00 in 137.0 W/m2 OVC
18:30 50.3 °F 40.5 °F 29.76 in NW 1.2 mph 6.0 mph 69 % 0.00 in 121.0 W/m2 OVC
18:35 50.1 °F 40.7 °F 29.76 in Calm     70 % 0.00 in 98.0 W/m2 OVC
18:40 50.0 °F 41.0 °F 29.76 in NW 0.4 mph 1.2 mph 71 % 0.00 in 76.0 W/m2 OVC
18:45 49.8 °F 40.8 °F 29.76 in NW 0.3 mph 2.0 mph 71 % 0.00 in 65.0 W/m2 OVC
18:50 49.7 °F 40.7 °F 29.76 in Calm     71 % 0.00 in 54.0 W/m2 OVC
18:55 49.6 °F 39.8 °F 29.76 in NW 0.6 mph 3.0 mph 69 % 0.00 in 49.0 W/m2 OVC
19:00 49.5 °F 39.7 °F 29.77 in NW 0.1 mph 1.2 mph 69 % 0.00 in 44.0 W/m2 OVC
19:05 49.6 °F 39.8 °F 29.77 in NW 0.1 mph   69 % 0.00 in 37.0 W/m2 OVC
19:10 49.5 °F 39.7 °F 29.77 in Calm     69 % 0.00 in 33.0 W/m2 OVC
19:15 49.4 °F 39.7 °F 29.77 in Calm     69 % 0.00 in 32.0 W/m2 OVC
19:20 49.4 °F 39.7 °F 29.77 in Calm     69 % 0.00 in 26.0 W/m2 OVC
19:25 49.4 °F 39.7 °F 29.78 in Calm     69 % 0.00 in 23.0 W/m2 OVC
19:31 49.4 °F 39.7 °F 29.78 in NW 0.9 mph   69 % 0.00 in 16.0 W/m2 OVC
19:36 49.3 °F 39.2 °F 29.78 in Calm     68 % 0.00 in 12.0 W/m2 OVC
19:41 49.2 °F 39.5 °F 29.78 in Calm   1.2 mph 69 % 0.00 in 7.0 W/m2 OVC
19:46 49.1 °F 39.7 °F 29.78 in Calm     70 % 0.00 in 5.0 W/m2 OVC
19:51 49.0 °F 39.6 °F 29.78 in Calm     70 % 0.00 in 0.0 W/m2 OVC
19:56 48.9 °F 39.9 °F 29.79 in Calm     71 % 0.00 in 0.0 W/m2 OVC
20:01 48.8 °F 39.8 °F 29.79 in Calm     71 % 0.00 in 0.0 W/m2 OVC
20:06 48.8 °F 40.2 °F 29.79 in Calm     72 % 0.00 in 0.0 W/m2 OVC
20:11 48.8 °F 40.5 °F 29.79 in Calm     73 % 0.01 in 0.0 W/m2 RA
20:16 48.7 °F 40.8 °F 29.79 in Calm     74 % 0.01 in 0.0 W/m2 RA
20:21 48.5 °F 40.9 °F 29.79 in Calm     75 % 0.01 in 0.0 W/m2 OVC
20:26 48.3 °F 41.1 °F 29.80 in Calm     76 % 0.01 in 0.0 W/m2 OVC
20:31 48.2 °F 41.3 °F 29.80 in Calm     77 % 0.01 in 0.0 W/m2 OVC
20:36 48.0 °F 41.5 °F 29.80 in Calm     78 % 0.01 in 0.0 W/m2 OVC
20:41 47.7 °F 41.5 °F 29.81 in Calm     79 % 0.01 in 0.0 W/m2 OVC
20:46 47.6 °F 41.4 °F 29.81 in Calm     79 % 0.01 in 0.0 W/m2 OVC
20:51 47.4 °F 41.2 °F 29.81 in Calm     79 % 0.01 in 0.0 W/m2 OVC
20:56 47.6 °F 41.7 °F 29.81 in Calm     80 % 0.01 in 0.0 W/m2 OVC
21:01 47.5 °F 42.0 °F 29.82 in Calm     81 % 0.01 in 0.0 W/m2 -RA
21:06 47.4 °F 41.9 °F 29.82 in Calm     81 % 0.01 in 0.0 W/m2 -RA
21:11 47.2 °F 41.7 °F 29.82 in Calm     81 % 0.00 in 0.0 W/m2 -RA
21:16 47.1 °F 41.9 °F 29.82 in Calm     82 % 0.00 in 0.0 W/m2 -RA
21:21 47.0 °F 42.1 °F 29.82 in Calm     83 % 0.00 in 0.0 W/m2 -RA
21:26 47.2 °F 42.3 °F 29.83 in Calm     83 % 0.00 in 0.0 W/m2 -RA
21:31 47.2 °F 42.3 °F 29.83 in Calm     83 % 0.00 in 0.0 W/m2 -RA
21:36 47.3 °F 42.4 °F 29.84 in Calm     83 % 0.00 in 0.0 W/m2 -RA
21:41 47.2 °F 42.3 °F 29.84 in Calm     83 % 0.00 in 0.0 W/m2 -RA
21:46 46.9 °F 42.0 °F 29.84 in Calm   3.5 mph 83 % 0.01 in 0.0 W/m2 -RA
21:51 46.8 °F 41.9 °F 29.83 in Calm     83 % 0.01 in 0.0 W/m2 -RA
21:56 46.5 °F 41.6 °F 29.83 in Calm     83 % 0.01 in 0.0 W/m2 -RA
22:01 46.2 °F 41.6 °F 29.84 in Calm     84 % 0.01 in 0.0 W/m2 OVC
22:06 46.0 °F 41.7 °F 29.83 in Calm     85 % 0.01 in 0.0 W/m2 OVC
22:11 45.7 °F 41.4 °F 29.83 in Calm     85 % 0.01 in 0.0 W/m2 OVC
22:16 45.8 °F 41.9 °F 29.84 in Calm     86 % 0.01 in 0.0 W/m2 OVC
22:21 46.1 °F 42.1 °F 29.84 in Calm     86 % 0.01 in 0.0 W/m2 OVC
22:26 45.9 °F 42.2 °F 29.84 in Calm     87 % 0.01 in 0.0 W/m2 OVC
22:32 45.8 °F 42.2 °F 29.84 in Calm     87 % 0.01 in 0.0 W/m2 OVC
22:37 45.6 °F 42.0 °F 29.83 in Calm     87 % 0.02 in 0.0 W/m2 RA
22:42 45.4 °F 42.1 °F 29.83 in Calm     88 % 0.02 in 0.0 W/m2 RA
22:47 45.3 °F 42.0 °F 29.83 in Calm     88 % 0.01 in 0.0 W/m2 OVC
22:52 45.2 °F 41.9 °F 29.83 in Calm     88 % 0.01 in 0.0 W/m2 OVC
22:57 44.8 °F 41.5 °F 29.82 in Calm     88 % 0.01 in 0.0 W/m2 OVC
23:02 45.1 °F 42.1 °F 29.83 in Calm     89 % 0.01 in 0.0 W/m2 -RA
23:07 44.8 °F 41.8 °F 29.83 in Calm     89 % 0.01 in 0.0 W/m2 -RA
23:12 44.7 °F 41.9 °F 29.83 in Calm     90 % 0.01 in 0.0 W/m2 -RA
23:17 44.3 °F 41.6 °F 29.83 in Calm     90 % 0.01 in 0.0 W/m2 -RA
23:22 44.3 °F 41.6 °F 29.83 in Calm     90 % 0.01 in 0.0 W/m2 -RA
23:27 44.0 °F 41.3 °F 29.83 in Calm     90 % 0.01 in 0.0 W/m2 -RA
23:32 43.9 °F 41.4 °F 29.83 in Calm     91 % 0.01 in 0.0 W/m2 -RA
23:37 43.8 °F 41.3 °F 29.83 in Calm     91 % 0.00 in 0.0 W/m2 -RA
23:42 43.4 °F 40.9 °F 29.83 in Calm     91 % 0.00 in 0.0 W/m2 -RA
23:47 43.2 °F 40.8 °F 29.83 in Calm     91 % 0.00 in 0.0 W/m2 -RA
23:52 43.0 °F 40.6 °F 29.83 in Calm     91 % 0.00 in 0.0 W/m2 -RA
23:57 43.0 °F 40.8 °F 29.83 in Calm     92 % 0.00 in 0.0 W/m2 -RA
Air Products Campus Weather
Compliments of Weather Underground - 3.5 mb